Time;durP1;ratioP1;P1;durP2;ratioP2;P2;SDS_P1;SDS_P2;PMS_P1;PMS_P2;Temp;Humidity;BMP_temperature;BMP_pressure;BME280_temperature;BME280_humidity;BME280_pressure;Samples;Min_cycle;Max_cycle;Signal;HPM_P1;HPM_P2
2022/03/29 00:02:20;;;;;;;3.15;1.23;;;20.80;99.90;;;;;;4997564;28;20042;-69
2022/03/29 00:04:47;;;;;;;3.60;1.60;;;20.80;99.90;;;;;;4991302;28;20504;-64
2022/03/29 00:07:14;;;;;;;2.75;1.08;;;20.80;99.90;;;;;;4997364;28;20742;-64
2022/03/29 00:09:42;;;;;;;1.30;0.90;;;20.90;99.90;;;;;;4997812;28;20103;-64
2022/03/29 00:12:09;;;;;;;1.27;0.80;;;20.90;99.90;;;;;;4990894;28;20030;-64
2022/03/29 00:14:36;;;;;;;3.35;1.65;;;21.00;99.90;;;;;;4999065;28;20022;-64
2022/03/29 00:17:03;;;;;;;4.68;1.10;;;21.00;99.90;;;;;;4999662;28;20034;-64
2022/03/29 00:19:30;;;;;;;1.88;0.70;;;21.10;99.90;;;;;;4992294;28;20026;-64
2022/03/29 00:21:57;;;;;;;3.78;1.40;;;21.20;99.90;;;;;;4996917;28;20109;-63
2022/03/29 00:24:24;;;;;;;1.90;0.90;;;21.30;99.90;;;;;;4996852;28;20022;-64
2022/03/29 00:26:51;;;;;;;3.03;1.35;;;21.30;99.90;;;;;;4995608;28;20546;-63
2022/03/29 00:29:18;;;;;;;2.03;1.17;;;21.30;99.90;;;;;;4992298;28;20025;-64
2022/03/29 00:31:45;;;;;;;1.67;1.10;;;21.30;99.90;;;;;;4996942;28;20038;-64
2022/03/29 00:34:12;;;;;;;2.55;1.13;;;21.40;99.90;;;;;;4990459;28;20037;-64
2022/03/29 00:36:40;;;;;;;1.65;0.98;;;21.40;99.90;;;;;;4994227;28;20043;-68
2022/03/29 00:39:07;;;;;;;2.38;1.02;;;21.50;99.90;;;;;;4995683;28;20133;-64
2022/03/29 00:41:33;;;;;;;3.05;1.05;;;21.40;99.90;;;;;;4999302;28;20076;-67
2022/03/29 00:44:01;;;;;;;0.98;0.65;;;21.40;99.90;;;;;;5004321;28;20015;-66
2022/03/29 00:46:28;;;;;;;1.83;0.80;;;21.40;99.90;;;;;;4998501;28;20022;-64
2022/03/29 00:48:55;;;;;;;3.15;1.08;;;21.50;99.90;;;;;;4996189;28;20026;-65
2022/03/29 00:51:22;;;;;;;5.35;2.28;;;21.40;99.90;;;;;;4997304;28;20026;-63
2022/03/29 00:53:49;;;;;;;3.00;1.20;;;21.40;99.90;;;;;;4998287;28;20022;-63
2022/03/29 00:56:21;;;;;;;3.08;1.08;;;21.30;99.90;;;;;;5001621;28;20587;-66
2022/03/29 00:58:49;;;;;;;3.60;1.20;;;21.30;99.90;;;;;;4994424;28;20023;-65
2022/03/29 01:01:16;;;;;;;2.15;1.20;;;21.50;99.90;;;;;;4997044;28;20077;-63
2022/03/29 01:03:45;;;;;;;1.08;0.88;;;21.50;99.90;;;;;;4999498;28;20131;-65
2022/03/29 01:06:12;;;;;;;0.88;0.75;;;21.60;99.90;;;;;;4997625;28;20078;-71
2022/03/29 01:08:39;;;;;;;1.30;0.80;;;21.60;99.90;;;;;;5004894;28;20026;-66
2022/03/29 01:11:07;;;;;;;1.50;0.70;;;21.60;99.90;;;;;;5000460;28;21204;-67
2022/03/29 01:13:34;;;;;;;0.93;0.50;;;21.70;99.90;;;;;;4306159;28;10000785;-68
2022/03/29 01:17:38;;;;;;;1.90;0.88;;;21.70;99.90;;;;;;4997457;28;20045;-66
2022/03/29 01:18:48;;;;;;;2.25;0.90;;;21.70;99.90;;;;;;4993329;28;20389;-65
2022/03/29 01:21:20;;;;;;;0.80;0.60;;;21.80;99.90;;;;;;4991732;28;20026;-65
2022/03/29 01:23:50;;;;;;;2.85;0.70;;;21.80;99.90;;;;;;4993427;28;20026;-67
2022/03/29 01:26:17;;;;;;;1.85;0.50;;;21.70;99.90;;;;;;4996861;28;20030;-67
2022/03/29 01:28:45;;;;;;;1.52;0.57;;;21.80;99.90;;;;;;4994273;28;20100;-66
2022/03/29 01:31:14;;;;;;;2.47;0.80;;;21.90;99.90;;;;;;4996343;28;20436;-65
2022/03/29 01:33:44;;;;;;;2.63;0.60;;;21.80;99.90;;;;;;4995950;28;20029;-65
2022/03/29 01:36:11;;;;;;;3.67;0.73;;;21.80;99.90;;;;;;5018715;28;20053;-67
2022/03/29 01:38:40;;;;;;;3.75;1.08;;;21.80;99.90;;;;;;4996194;28;20258;-68
2022/03/29 01:41:07;;;;;;;2.08;1.05;;;21.90;99.90;;;;;;4996637;28;20130;-66
2022/03/29 01:43:34;;;;;;;2.85;1.02;;;21.90;99.90;;;;;;4996523;28;20033;-70
2022/03/29 01:46:01;;;;;;;6.10;1.48;;;21.90;99.90;;;;;;4997662;28;20267;-70
2022/03/29 01:48:28;;;;;;;7.07;1.30;;;21.80;99.90;;;;;;4996571;28;20018;-66
2022/03/29 01:50:55;;;;;;;3.60;1.00;;;21.80;99.90;;;;;;4996297;28;20030;-69
2022/03/29 01:53:24;;;;;;;2.83;0.82;;;21.80;99.90;;;;;;4996520;28;20061;-68
2022/03/29 01:55:58;;;;;;;1.55;1.17;;;21.90;99.90;;;;;;4997081;28;20080;-68
2022/03/29 01:58:26;;;;;;;3.67;1.10;;;22.00;99.90;;;;;;4996728;28;20017;-66
2022/03/29 02:00:54;;;;;;;1.80;0.88;;;22.10;99.90;;;;;;4995531;28;20038;-68
2022/03/29 02:03:21;;;;;;;2.90;0.90;;;22.10;99.90;;;;;;4996713;28;20097;-67
2022/03/29 02:05:49;;;;;;;4.65;0.80;;;22.10;99.90;;;;;;4996269;28;20030;-66
2022/03/29 02:08:16;;;;;;;1.70;0.73;;;22.20;99.90;;;;;;4995763;28;20141;-66
2022/03/29 02:10:43;;;;;;;1.30;0.43;;;22.20;99.90;;;;;;4996212;28;20648;-68
2022/03/29 02:13:10;;;;;;;0.90;0.60;;;22.30;99.90;;;;;;4995716;28;20041;-68
2022/03/29 02:15:39;;;;;;;0.65;0.35;;;22.30;99.90;;;;;;4995520;28;20025;-68
2022/03/29 02:18:07;;;;;;;1.08;0.30;;;22.30;99.90;;;;;;4995582;28;20042;-68
2022/03/29 02:20:34;;;;;;;1.63;0.52;;;22.20;99.90;;;;;;4992947;28;20034;-68
2022/03/29 02:23:06;;;;;;;2.63;0.50;;;22.20;99.90;;;;;;4994364;28;20117;-66
2022/03/29 02:25:34;;;;;;;0.38;0.25;;;22.10;99.90;;;;;;4995266;28;20041;-65
2022/03/29 02:28:02;;;;;;;1.13;0.60;;;22.20;99.90;;;;;;4996680;28;20100;-70
2022/03/29 02:30:32;;;;;;;2.33;0.60;;;22.20;99.90;;;;;;4995893;28;20025;-70
2022/03/29 02:33:01;;;;;;;1.10;0.40;;;22.40;99.90;;;;;;4995632;28;20040;-68
2022/03/29 02:35:28;;;;;;;0.63;0.47;;;22.60;99.90;;;;;;4994176;28;20034;-67
2022/03/29 02:37:55;;;;;;;1.65;0.80;;;22.60;99.90;;;;;;4995289;28;20050;-67
2022/03/29 02:40:22;;;;;;;0.65;0.32;;;22.60;99.90;;;;;;4996116;28;20026;-65
2022/03/29 02:42:52;;;;;;;0.95;0.68;;;22.70;99.90;;;;;;4994678;28;20022;-69
2022/03/29 02:45:21;;;;;;;0.90;0.45;;;22.80;99.90;;;;;;4995400;28;20778;-67
2022/03/29 02:47:50;;;;;;;0.30;0.30;;;22.90;99.90;;;;;;4995080;28;20041;-68
2022/03/29 02:50:18;;;;;;;1.00;0.35;;;23.00;99.90;;;;;;4993978;28;20113;-65
2022/03/29 02:52:50;;;;;;;0.82;0.47;;;23.10;99.90;;;;;;4995515;28;20027;-64
2022/03/29 02:55:18;;;;;;;1.50;0.63;;;23.30;99.90;;;;;;4995375;28;20033;-65
2022/03/29 02:57:46;;;;;;;0.55;0.30;;;23.40;99.90;;;;;;4993839;28;20030;-65
2022/03/29 03:00:16;;;;;;;0.45;0.40;;;23.20;99.90;;;;;;4994913;28;20026;-67
2022/03/29 03:03:03;;;;;;;1.45;0.65;;;23.10;99.90;;;;;;4994098;28;20552;-70
2022/03/29 03:05:30;;;;;;;0.57;0.40;;;23.00;99.90;;;;;;4994632;28;20034;-68
2022/03/29 03:07:57;;;;;;;1.90;0.45;;;22.90;99.90;;;;;;4996276;28;20024;-64
2022/03/29 03:10:25;;;;;;;2.42;0.60;;;22.90;99.90;;;;;;4995433;28;20022;-63
2022/03/29 03:12:52;;;;;;;0.77;0.43;;;23.00;99.90;;;;;;4994231;28;20138;-63
2022/03/29 03:15:21;;;;;;;0.80;0.57;;;23.10;99.90;;;;;;4995256;28;20167;-70
2022/03/29 03:17:50;;;;;;;0.52;0.40;;;23.00;99.90;;;;;;4995398;28;20084;-64
2022/03/29 03:20:17;;;;;;;3.20;0.70;;;22.90;99.90;;;;;;4992633;28;20022;-65
2022/03/29 03:22:46;;;;;;;0.65;0.30;;;22.90;99.90;;;;;;4993111;28;20088;-66
2022/03/29 03:25:13;;;;;;;0.98;0.35;;;22.90;99.90;;;;;;4993075;28;20102;-68
2022/03/29 03:27:40;;;;;;;0.45;0.40;;;22.90;99.90;;;;;;4993278;28;20076;-65
2022/03/29 03:30:10;;;;;;;1.55;0.80;;;22.90;99.90;;;;;;4993233;28;20029;-65
2022/03/29 03:32:38;;;;;;;1.83;0.70;;;22.90;99.90;;;;;;4993937;28;20323;-66
2022/03/29 03:35:06;;;;;;;1.25;0.50;;;22.90;99.90;;;;;;4993164;28;20492;-64
2022/03/29 03:37:36;;;;;;;1.60;0.60;;;22.90;99.90;;;;;;4993072;28;20034;-67
2022/03/29 03:40:08;;;;;;;2.67;0.80;;;22.90;99.90;;;;;;4993397;28;20161;-65
2022/03/29 03:42:37;;;;;;;0.85;0.50;;;22.90;99.90;;;;;;4992498;28;20033;-66
2022/03/29 03:45:05;;;;;;;0.80;0.60;;;23.00;99.90;;;;;;4992385;28;20120;-66
2022/03/29 03:47:32;;;;;;;1.27;0.45;;;23.00;99.90;;;;;;4984958;28;20060;-64
2022/03/29 03:49:59;;;;;;;3.78;0.60;;;23.00;99.90;;;;;;4993420;28;20034;-64
2022/03/29 03:52:26;;;;;;;2.00;0.63;;;23.10;99.90;;;;;;4994668;28;20057;-66
2022/03/29 03:54:56;;;;;;;0.63;0.50;;;23.10;99.90;;;;;;4995474;28;20026;-63
2022/03/29 03:57:23;;;;;;;0.60;0.30;;;22.90;99.90;;;;;;4991688;28;20038;-65
2022/03/29 03:59:52;;;;;;;1.95;0.60;;;22.80;99.90;;;;;;4995050;28;20038;-64
2022/03/29 04:02:19;;;;;;;0.32;0.30;;;22.70;99.90;;;;;;4995167;28;20022;-66
2022/03/29 04:04:46;;;;;;;0.77;0.60;;;22.70;99.90;;;;;;4998259;28;20030;-65
2022/03/29 04:07:14;;;;;;;1.40;0.30;;;22.60;99.90;;;;;;4997836;28;20687;-67
2022/03/29 04:09:41;;;;;;;1.33;0.50;;;22.60;99.90;;;;;;4997593;28;20197;-65
2022/03/29 04:12:08;;;;;;;1.15;0.28;;;22.40;99.90;;;;;;4996638;28;20034;-63
2022/03/29 04:14:39;;;;;;;1.02;0.20;;;22.30;99.90;;;;;;4995817;28;20714;-65
2022/03/29 04:17:06;;;;;;;1.08;0.40;;;22.30;99.90;;;;;;4997604;28;20030;-66
2022/03/29 04:19:33;;;;;;;1.05;0.68;;;22.30;99.90;;;;;;4995763;28;20470;-64
2022/03/29 04:22:00;;;;;;;2.08;1.58;;;22.50;99.90;;;;;;4997459;28;20037;-65
2022/03/29 04:24:28;;;;;;;2.22;1.00;;;22.60;99.90;;;;;;4994793;28;20029;-64
2022/03/29 04:26:55;;;;;;;2.03;0.75;;;22.80;99.90;;;;;;4991732;28;20076;-64
2022/03/29 04:29:22;;;;;;;0.70;0.35;;;22.90;99.90;;;;;;4993233;28;20030;-64
2022/03/29 04:31:52;;;;;;;3.90;1.60;;;22.90;99.90;;;;;;4994811;28;20088;-65
2022/03/29 04:34:19;;;;;;;1.13;0.63;;;22.90;99.90;;;;;;4994479;28;20906;-63
2022/03/29 04:36:46;;;;;;;0.70;0.50;;;22.90;99.90;;;;;;4992315;28;20124;-64
2022/03/29 04:39:13;;;;;;;1.35;1.00;;;22.90;99.90;;;;;;4993083;28;20298;-64
2022/03/29 04:41:40;;;;;;;2.13;1.00;;;22.80;99.90;;;;;;4993768;28;20377;-66
2022/03/29 04:44:07;;;;;;;1.55;0.88;;;22.80;99.90;;;;;;4994026;28;20022;-64
2022/03/29 04:46:34;;;;;;;1.88;1.60;;;22.80;99.90;;;;;;4992568;28;20029;-64
2022/03/29 04:49:00;;;;;;;1.42;0.90;;;22.70;99.90;;;;;;4992564;28;20030;-65
2022/03/29 04:51:28;;;;;;;1.63;0.73;;;22.70;99.90;;;;;;4994814;28;20100;-64
2022/03/29 04:53:55;;;;;;;0.88;0.50;;;22.50;99.90;;;;;;4992868;28;20060;-63
2022/03/29 04:56:21;;;;;;;4.57;1.20;;;22.50;99.90;;;;;;4994024;28;20034;-64
2022/03/29 04:58:49;;;;;;;2.17;0.93;;;22.30;99.90;;;;;;4995908;28;20030;-65
2022/03/29 05:01:16;;;;;;;3.00;0.80;;;22.30;99.90;;;;;;4995432;28;20026;-66
2022/03/29 05:03:43;;;;;;;1.88;0.73;;;22.20;99.90;;;;;;4996981;28;20121;-68
2022/03/29 05:06:10;;;;;;;4.32;1.17;;;22.20;99.90;;;;;;4999330;28;20040;-65
2022/03/29 05:08:37;;;;;;;5.00;1.70;;;22.10;99.90;;;;;;4996382;28;20057;-66
2022/03/29 05:11:04;;;;;;;3.47;1.25;;;22.20;99.90;;;;;;4996221;28;20037;-68
2022/03/29 05:13:31;;;;;;;1.35;0.80;;;22.10;99.90;;;;;;4995965;28;20072;-69
2022/03/29 05:15:58;;;;;;;2.65;1.10;;;22.00;99.90;;;;;;4996454;28;20567;-67
2022/03/29 05:18:25;;;;;;;3.33;1.88;;;21.90;99.90;;;;;;4997793;28;20022;-69
2022/03/29 05:20:52;;;;;;;2.17;0.90;;;21.90;99.90;;;;;;4996648;28;20066;-69
2022/03/29 05:23:20;;;;;;;3.03;0.98;;;21.90;99.90;;;;;;4997311;28;20109;-68
2022/03/29 05:25:47;;;;;;;1.23;0.85;;;21.90;99.90;;;;;;4995502;28;20076;-68
2022/03/29 05:28:14;;;;;;;3.15;0.90;;;22.00;99.90;;;;;;5001606;28;20434;-69
2022/03/29 05:30:41;;;;;;;2.00;1.00;;;22.10;99.90;;;;;;5005198;28;20101;-63
2022/03/29 05:33:15;;;;;;;2.13;0.90;;;22.10;99.90;;;;;;5004748;28;20057;-68
2022/03/29 05:35:43;;;;;;;2.22;1.25;;;22.30;99.90;;;;;;5002465;28;20474;-64
2022/03/29 05:38:10;;;;;;;1.35;1.10;;;22.20;99.90;;;;;;4993061;28;20308;-68
2022/03/29 05:40:37;;;;;;;1.45;0.93;;;22.30;99.90;;;;;;4998269;28;20625;-64
2022/03/29 05:43:10;;;;;;;0.75;0.60;;;22.30;99.90;;;;;;4996364;28;20026;-64
2022/03/29 05:45:39;;;;;;;0.95;0.80;;;22.30;99.90;;;;;;4998876;28;20061;-68
2022/03/29 05:50:53;;;;;;;1.17;0.80;;;22.30;99.90;;;;;;4997400;28;20068;-68
2022/03/29 05:53:20;;;;;;;3.33;1.40;;;22.30;99.90;;;;;;4995765;28;20117;-63
2022/03/29 05:55:48;;;;;;;4.95;1.35;;;22.40;99.90;;;;;;4993873;28;20438;-63
2022/03/29 05:58:16;;;;;;;1.63;1.27;;;22.40;99.90;;;;;;4995162;28;20026;-68
2022/03/29 06:00:44;;;;;;;4.00;1.70;;;22.40;99.90;;;;;;4992221;28;20021;-65
2022/03/29 06:03:11;;;;;;;1.95;1.48;;;22.40;99.90;;;;;;4991191;28;20033;-68
2022/03/29 06:05:42;;;;;;;3.80;2.40;;;22.40;99.90;;;;;;4990536;28;20025;-65
2022/03/29 06:08:12;;;;;;;3.92;1.20;;;22.40;99.90;;;;;;4992394;28;20491;-63
2022/03/29 06:10:39;;;;;;;1.48;1.02;;;22.40;99.90;;;;;;4991962;28;20030;-67
2022/03/29 06:13:08;;;;;;;2.83;1.65;;;22.40;99.90;;;;;;4990322;28;20034;-63
2022/03/29 06:15:36;;;;;;;6.30;5.28;;;22.50;99.90;;;;;;4989591;28;20863;-64
2022/03/29 06:18:04;;;;;;;4.15;1.90;;;22.50;99.90;;;;;;4990996;28;20049;-69
2022/03/29 06:20:31;;;;;;;5.40;4.45;;;22.50;99.90;;;;;;4989687;28;20030;-64
2022/03/29 06:22:58;;;;;;;2.75;1.83;;;22.60;99.90;;;;;;4990850;28;20030;-66
2022/03/29 06:25:25;;;;;;;1.80;1.00;;;22.60;99.90;;;;;;4991913;28;20029;-66
2022/03/29 06:27:54;;;;;;;2.10;0.80;;;22.60;99.90;;;;;;4990341;28;20042;-66
2022/03/29 06:30:21;;;;;;;5.70;4.35;;;22.60;99.90;;;;;;4989935;28;20034;-65
2022/03/29 06:32:53;;;;;;;6.50;5.38;;;22.60;99.90;;;;;;4993155;28;20559;-66
2022/03/29 06:35:31;;;;;;;3.23;1.90;;;22.50;99.90;;;;;;4992555;28;20519;-65
2022/03/29 06:37:59;;;;;;;1.85;0.93;;;22.50;99.90;;;;;;4987217;28;20300;-68
2022/03/29 06:40:28;;;;;;;1.52;0.80;;;22.50;99.90;;;;;;4985977;28;20136;-69
2022/03/29 06:43:00;;;;;;;2.97;0.85;;;22.50;99.90;;;;;;4987957;28;20026;-69
2022/03/29 06:45:28;;;;;;;2.60;0.98;;;22.50;99.90;;;;;;4985792;28;20065;-65
2022/03/29 06:47:57;;;;;;;1.95;1.05;;;22.50;99.90;;;;;;4988725;28;20044;-68
2022/03/29 06:50:24;;;;;;;1.70;0.63;;;22.40;99.90;;;;;;4988167;28;21156;-71
2022/03/29 06:52:51;;;;;;;0.95;0.80;;;22.30;99.90;;;;;;4991334;28;20030;-68
2022/03/29 06:55:19;;;;;;;2.40;1.00;;;22.30;99.90;;;;;;4988424;28;20297;-68
2022/03/29 06:57:46;;;;;;;2.45;1.10;;;22.30;99.90;;;;;;4988526;28;20026;-63
2022/03/29 07:00:14;;;;;;;2.35;1.08;;;22.20;99.90;;;;;;4987879;28;20026;-66
2022/03/29 07:02:41;;;;;;;1.52;0.70;;;22.10;99.90;;;;;;4986106;28;20034;-68
2022/03/29 07:05:09;;;;;;;2.38;1.00;;;22.10;99.90;;;;;;4987937;28;20023;-65
2022/03/29 07:07:36;;;;;;;3.42;1.10;;;22.10;99.90;;;;;;4987931;28;20034;-67
2022/03/29 07:12:59;;;;;;;0.70;0.55;;;22.00;99.90;;;;;;4987115;28;20064;-67
2022/03/29 07:15:26;;;;;;;3.35;1.15;;;22.00;99.90;;;;;;4987616;28;20023;-68
2022/03/29 07:17:54;;;;;;;2.33;0.90;;;22.00;99.90;;;;;;4987369;28;20055;-67
2022/03/29 07:20:22;;;;;;;2.88;2.15;;;21.90;99.90;;;;;;4987407;28;20026;-65
2022/03/29 07:22:50;;;;;;;10.73;4.63;;;21.80;99.90;;;;;;4988539;28;20022;-65
2022/03/29 07:25:19;;;;;;;7.22;4.88;;;21.80;99.90;;;;;;4988154;28;20017;-64
2022/03/29 07:27:49;;;;;;;4.40;1.60;;;21.70;99.90;;;;;;4984198;28;20030;-69
2022/03/29 07:30:16;;;;;;;2.08;1.25;;;21.60;99.90;;;;;;4986660;28;20037;-64
2022/03/29 07:32:54;;;;;;;1.98;1.00;;;21.60;99.90;;;;;;4985269;28;20030;-64
2022/03/29 07:35:24;;;;;;;3.75;1.02;;;21.50;99.90;;;;;;4986774;28;20041;-66
2022/03/29 07:37:51;;;;;;;1.15;1.05;;;21.50;99.90;;;;;;4987543;28;20530;-66
2022/03/29 07:40:22;;;;;;;3.85;1.20;;;21.50;99.90;;;;;;4994598;28;20029;-64
2022/03/29 07:42:50;;;;;;;4.32;1.30;;;21.40;99.90;;;;;;4996413;28;20053;-64
2022/03/29 07:45:18;;;;;;;3.25;1.42;;;21.40;99.90;;;;;;4999377;28;20036;-66
2022/03/29 07:47:48;;;;;;;3.47;1.27;;;21.40;99.90;;;;;;4998859;28;20603;-67
2022/03/29 07:50:15;;;;;;;3.97;1.10;;;21.40;99.90;;;;;;4998513;28;20026;-65
2022/03/29 07:52:43;;;;;;;1.75;1.10;;;21.40;99.90;;;;;;5001299;28;20488;-65
2022/03/29 07:55:11;;;;;;;2.13;1.23;;;21.40;99.90;;;;;;5002943;28;20030;-64
2022/03/29 07:57:39;;;;;;;3.42;1.38;;;21.30;99.90;;;;;;4999821;28;20034;-64
2022/03/29 08:02:56;;;;;;;1.88;1.55;;;21.30;99.90;;;;;;4998735;28;20064;-64
2022/03/29 08:05:23;;;;;;;2.03;1.65;;;21.30;99.90;;;;;;5001060;28;20143;-65
2022/03/29 08:07:50;;;;;;;3.72;3.42;;;21.30;99.90;;;;;;5003635;28;20036;-71
2022/03/29 08:10:17;;;;;;;20.48;16.58;;;21.30;99.90;;;;;;5006876;28;20480;-69
2022/03/29 08:12:44;;;;;;;5.00;3.83;;;21.30;99.90;;;;;;5002559;28;20037;-67
2022/03/29 08:15:12;;;;;;;4.68;3.70;;;21.30;99.90;;;;;;5004348;28;20026;-67
2022/03/29 08:17:39;;;;;;;4.93;3.30;;;21.20;99.90;;;;;;5012881;28;20053;-66
2022/03/29 08:20:07;;;;;;;4.20;2.80;;;21.20;99.90;;;;;;4999622;28;20567;-70
2022/03/29 08:22:34;;;;;;;3.75;2.97;;;21.20;99.90;;;;;;5003349;28;20117;-67
2022/03/29 08:25:03;;;;;;;5.38;2.67;;;21.20;99.90;;;;;;5005940;28;20029;-68
2022/03/29 08:27:30;;;;;;;3.88;2.90;;;21.10;99.90;;;;;;5003598;28;20043;-70
2022/03/29 08:29:57;;;;;;;7.60;3.20;;;21.10;99.90;;;;;;5003015;28;20113;-68
2022/03/29 08:32:24;;;;;;;4.75;3.03;;;21.10;99.90;;;;;;4998775;28;20409;-68
2022/03/29 08:34:51;;;;;;;2.15;0.80;;;21.10;99.90;;;;;;5004312;28;20018;-68
2022/03/29 08:37:18;;;;;;;1.65;0.63;;;21.10;99.90;;;;;;5006152;28;20072;-68
2022/03/29 08:39:45;;;;;;;3.20;0.70;;;20.80;99.90;;;;;;5003326;28;20425;-69
2022/03/29 08:42:20;;;;;;;5.18;1.60;;;20.70;99.90;;;;;;5001942;28;20532;-68
2022/03/29 08:44:47;;;;;;;5.10;1.45;;;20.50;99.90;;;;;;5000058;28;20697;-66
2022/03/29 08:47:15;;;;;;;4.93;1.42;;;20.30;99.90;;;;;;5005423;28;20551;-69
2022/03/29 08:49:45;;;;;;;3.75;1.38;;;20.10;99.90;;;;;;5006055;28;20057;-69
2022/03/29 08:52:12;;;;;;;5.88;1.17;;;20.10;99.90;;;;;;5001628;28;20017;-69
2022/03/29 08:54:40;;;;;;;5.70;1.42;;;19.90;99.90;;;;;;5002735;28;20026;-69
2022/03/29 08:57:07;;;;;;;5.65;1.65;;;19.90;99.90;;;;;;5007031;28;20114;-71
2022/03/29 08:59:34;;;;;;;7.07;1.60;;;19.90;99.90;;;;;;5012419;28;20026;-69
2022/03/29 09:02:13;;;;;;;9.82;1.83;;;19.90;99.90;;;;;;5013472;28;20021;-69
2022/03/29 09:04:40;;;;;;;6.07;1.60;;;19.70;99.90;;;;;;5007202;28;20025;-68
2022/03/29 09:07:07;;;;;;;7.13;1.92;;;19.80;99.90;;;;;;5011078;28;20038;-69
2022/03/29 09:09:44;;;;;;;5.60;1.63;;;19.70;99.90;;;;;;5006605;28;20463;-69
2022/03/29 09:12:17;;;;;;;6.88;1.70;;;19.70;99.90;;;;;;5008444;28;20030;-68
2022/03/29 09:14:54;;;;;;;5.57;1.40;;;19.70;99.90;;;;;;5005796;28;20029;-70
2022/03/29 09:17:33;;;;;;;5.25;1.90;;;19.70;99.90;;;;;;5011706;28;20419;-68
2022/03/29 09:20:08;;;;;;;6.72;1.42;;;19.70;99.90;;;;;;5008950;28;20022;-69
2022/03/29 09:22:43;;;;;;;5.82;1.40;;;19.70;99.90;;;;;;5011313;28;20528;-69
2022/03/29 09:25:36;;;;;;;5.53;1.42;;;19.70;99.90;;;;;;5002061;28;20025;-67
2022/03/29 09:28:10;;;;;;;3.70;1.25;;;19.70;99.90;;;;;;4913424;29;20043;-66
2022/03/29 09:30:51;;;;;;;3.72;1.10;;;19.70;99.90;;;;;;4914188;29;20059;-70
2022/03/29 09:33:30;;;;;;;3.92;1.30;;;19.70;99.90;;;;;;4916710;29;20059;-69
2022/03/29 09:36:08;;;;;;;5.07;1.90;;;19.60;99.90;;;;;;4906859;29;20063;-69
2022/03/29 09:38:39;;;;;;;4.72;1.40;;;19.60;99.90;;;;;;4911778;29;20044;-69
2022/03/29 09:41:26;;;;;;;7.07;1.73;;;19.70;99.90;;;;;;4910007;29;20035;-68
2022/03/29 09:44:08;;;;;;;4.28;1.42;;;19.60;99.90;;;;;;4911693;29;20176;-67
2022/03/29 09:46:59;;;;;;;4.95;1.58;;;19.60;99.90;;;;;;4911066;29;20044;-68
2022/03/29 09:49:26;;;;;;;3.20;1.48;;;19.60;99.90;;;;;;4912443;29;20040;-68
2022/03/29 09:52:16;;;;;;;3.33;1.70;;;19.60;99.90;;;;;;4910494;29;20428;-68
2022/03/29 09:55:20;;;;;;;3.97;1.40;;;19.60;99.90;;;;;;4909605;29;20040;-67
2022/03/29 09:57:53;;;;;;;4.03;1.83;;;19.60;99.90;;;;;;4913820;29;20123;-68
2022/03/29 10:00:26;;;;;;;6.43;1.90;;;19.70;99.90;;;;;;4908853;29;20062;-70
2022/03/29 10:02:52;;;;;;;;;;;19.70;99.90;;;;;;4914633;29;20034;-68
2022/03/29 10:05:20;;;;;;;6.18;1.50;;;19.80;99.90;;;;;;4973650;28;19917;-69
2022/03/29 10:10:48;;;;;;;16.92;12.90;;;19.70;99.90;;;;;;5008351;28;20076;-68
2022/03/29 10:13:19;;;;;;;23.83;20.33;;;19.70;99.90;;;;;;5003514;28;20613;-69
2022/03/29 10:15:46;;;;;;;12.65;11.27;;;19.80;99.90;;;;;;5003292;28;20049;-70
2022/03/29 10:18:14;;;;;;;14.57;9.35;;;19.80;99.90;;;;;;5002219;28;20030;-67
2022/03/29 10:20:41;;;;;;;7.05;3.03;;;19.80;99.90;;;;;;5000449;28;20112;-66
2022/03/29 10:23:11;;;;;;;5.60;3.10;;;19.80;99.90;;;;;;5004442;28;20026;-66
2022/03/29 10:25:38;;;;;;;5.70;1.95;;;19.80;99.90;;;;;;5001605;28;20862;-70
2022/03/29 10:28:06;;;;;;;4.65;2.15;;;19.80;99.90;;;;;;4999227;28;20041;-70
2022/03/29 10:30:39;;;;;;;7.47;2.20;;;19.80;99.90;;;;;;5002845;28;20435;-66
2022/03/29 10:33:35;;;;;;;5.80;2.20;;;19.90;99.90;;;;;;5003893;28;20033;-67
2022/03/29 10:38:58;;;;;;;7.78;2.55;;;19.90;99.90;;;;;;5065253;23;20449;-70
2022/03/29 10:41:28;;;;;;;5.85;1.88;;;19.90;99.90;;;;;;5029117;28;20091;-69
2022/03/29 10:44:08;;;;;;;6.63;2.20;;;19.90;99.90;;;;;;5037431;28;20114;-67
2022/03/29 10:46:43;;;;;;;5.55;2.05;;;19.90;99.90;;;;;;5037988;28;20025;-66
2022/03/29 10:49:23;;;;;;;7.72;2.38;;;19.90;99.90;;;;;;5037561;28;20040;-66
2022/03/29 10:51:54;;;;;;;8.07;2.58;;;20.00;99.90;;;;;;5032594;28;20407;-70
2022/03/29 10:54:40;;;;;;;10.40;2.80;;;20.00;99.90;;;;;;5034261;28;20033;-69
2022/03/29 10:57:07;;;;;;;5.57;2.80;;;19.90;99.90;;;;;;5033567;28;20041;-67
2022/03/29 10:59:38;;;;;;;6.72;2.35;;;19.90;99.90;;;;;;5034512;28;20500;-65
2022/03/29 11:02:15;;;;;;;7.93;2.60;;;19.80;99.90;;;;;;5029859;28;20135;-65
2022/03/29 11:05:05;;;;;;;5.47;2.10;;;19.80;99.90;;;;;;5035463;28;20051;-67
2022/03/29 11:07:34;;;;;;;5.47;3.00;;;19.70;99.90;;;;;;5037836;28;20033;-66
2022/03/29 11:10:12;;;;;;;8.35;3.72;;;19.60;99.90;;;;;;5035702;28;20419;-67
2022/03/29 11:12:56;;;;;;;7.25;3.30;;;19.70;99.90;;;;;;5034279;28;20067;-66
2022/03/29 11:16:02;;;;;;;9.82;3.03;;;19.70;99.90;;;;;;5036032;28;20029;-67
2022/03/29 11:18:31;;;;;;;4.70;3.05;;;19.60;99.90;;;;;;5034028;28;20037;-68
2022/03/29 11:21:04;;;;;;;4.38;2.53;;;19.50;99.90;;;;;;5036963;28;20516;-67
2022/03/29 11:23:35;;;;;;;5.00;2.63;;;19.50;99.90;;;;;;5031660;28;20025;-66
2022/03/29 11:26:08;;;;;;;6.95;3.47;;;19.40;99.90;;;;;;5030242;28;20071;-69
2022/03/29 11:28:35;;;;;;;;;;;19.40;99.90;;;;;;5035344;28;20432;-68
2022/03/29 11:31:02;;;;;;;5.57;3.80;;;19.50;99.90;;;;;;5038915;28;19913;-67
2022/03/29 11:33:34;;;;;;;8.10;4.38;;;19.40;99.90;;;;;;5039536;28;20040;-69
2022/03/29 11:36:06;;;;;;;9.75;4.50;;;19.40;99.90;;;;;;5037023;28;20362;-67
2022/03/29 11:38:36;;;;;;;8.02;4.95;;;19.40;99.90;;;;;;5038009;28;20041;-67
2022/03/29 11:41:04;;;;;;;9.75;5.70;;;19.50;99.90;;;;;;5039835;28;20029;-67
2022/03/29 11:43:33;;;;;;;7.18;5.65;;;19.40;99.90;;;;;;5034483;28;20460;-68
2022/03/29 11:46:00;;;;;;;12.40;7.68;;;19.40;99.90;;;;;;5036646;28;20467;-67
2022/03/29 11:48:27;;;;;;;12.52;8.63;;;19.40;99.90;;;;;;5034850;28;20237;-66
2022/03/29 11:51:00;;;;;;;11.13;8.77;;;19.40;99.90;;;;;;5038709;28;20500;-66
2022/03/29 11:53:33;;;;;;;12.68;10.90;;;19.40;99.90;;;;;;5031506;28;20037;-66
2022/03/29 11:56:09;;;;;;;15.50;10.98;;;19.50;99.90;;;;;;5035183;28;20039;-67
2022/03/29 11:58:44;;;;;;;23.70;15.10;;;19.50;99.90;;;;;;5037564;28;20021;-66
2022/03/29 12:01:27;;;;;;;16.15;12.43;;;19.50;99.90;;;;;;5039950;28;20483;-65
2022/03/29 12:04:07;;;;;;;13.02;10.85;;;19.50;99.90;;;;;;5039023;28;20032;-67
2022/03/29 12:06:50;;;;;;;25.17;19.02;;;19.50;99.90;;;;;;5031345;28;20052;-66
2022/03/29 12:09:24;;;;;;;21.98;18.45;;;19.60;99.90;;;;;;5027579;28;20032;-67
2022/03/29 12:11:56;;;;;;;26.17;23.02;;;19.60;99.90;;;;;;5029437;28;20045;-67
2022/03/29 12:14:24;;;;;;;25.27;17.95;;;19.60;99.90;;;;;;5032432;28;20035;-68
2022/03/29 12:17:03;;;;;;;21.33;16.23;;;19.60;99.90;;;;;;5035208;28;20029;-67
2022/03/29 12:19:34;;;;;;;20.02;14.13;;;19.60;99.90;;;;;;5037115;28;20504;-67
2022/03/29 12:22:06;;;;;;;20.85;12.27;;;19.60;99.90;;;;;;5037639;28;20100;-67
2022/03/29 12:24:37;;;;;;;16.10;10.30;;;19.70;99.90;;;;;;5034336;28;20048;-66
2022/03/29 12:27:06;;;;;;;13.40;9.30;;;19.70;99.90;;;;;;5040368;28;20256;-66
2022/03/29 12:29:42;;;;;;;11.32;8.13;;;19.70;99.90;;;;;;5043799;28;20155;-68
2022/03/29 12:32:10;;;;;;;11.20;6.95;;;19.70;99.90;;;;;;5037456;28;20025;-68
2022/03/29 12:34:38;;;;;;;10.00;5.97;;;19.60;99.90;;;;;;5032200;28;20140;-67
2022/03/29 12:37:15;;;;;;;10.15;5.22;;;19.60;99.90;;;;;;5038695;28;20410;-68
2022/03/29 12:39:43;;;;;;;7.70;4.00;;;19.60;99.90;;;;;;5044438;28;20062;-68
2022/03/29 12:42:16;;;;;;;7.25;4.75;;;19.60;99.90;;;;;;5034742;28;20026;-68
2022/03/29 12:44:48;;;;;;;8.63;3.45;;;19.60;99.90;;;;;;5039233;28;20018;-67
2022/03/29 12:47:17;;;;;;;11.15;2.90;;;19.60;99.90;;;;;;5042786;28;20108;-68
2022/03/29 12:49:49;;;;;;;7.10;2.58;;;19.60;99.90;;;;;;5039004;28;20040;-68
2022/03/29 12:52:17;;;;;;;4.85;2.47;;;19.60;99.90;;;;;;5029589;28;20452;-67
2022/03/29 12:55:02;;;;;;;14.30;3.42;;;19.70;99.90;;;;;;5033426;28;20029;-67
2022/03/29 12:57:41;;;;;;;4.90;2.03;;;19.70;99.90;;;;;;5033943;28;20056;-65
2022/03/29 13:00:10;;;;;;;4.35;2.10;;;19.70;99.90;;;;;;5034245;28;20057;-66
2022/03/29 13:02:43;;;;;;;5.25;2.25;;;19.70;99.90;;;;;;5040670;28;20031;-66
2022/03/29 13:05:11;;;;;;;8.07;2.05;;;19.70;99.90;;;;;;5030332;28;20029;-67
2022/03/29 13:07:49;;;;;;;5.22;2.15;;;19.70;99.90;;;;;;5029242;28;20048;-66
2022/03/29 13:10:19;;;;;;;6.03;1.35;;;19.60;99.90;;;;;;5036558;28;20029;-67
2022/03/29 13:12:54;;;;;;;6.05;1.75;;;19.60;99.90;;;;;;5029468;28;20029;-67
2022/03/29 13:15:54;;;;;;;7.25;1.60;;;19.50;99.90;;;;;;5036473;28;20086;-67